sensor_id;sensor_type;location;lat;lon;timestamp;P1;durP1;ratioP1;P2;durP2;ratioP2
19808;SDS011;48538;32.784;-96.802;2024-03-25T00:01:44;7.93;;;5.60;;
19808;SDS011;48538;32.784;-96.802;2024-03-25T00:04:11;9.25;;;5.75;;
19808;SDS011;48538;32.784;-96.802;2024-03-25T00:06:37;7.75;;;5.50;;
19808;SDS011;48538;32.784;-96.802;2024-03-25T00:09:03;7.40;;;5.28;;
19808;SDS011;48538;32.784;-96.802;2024-03-25T00:11:32;7.90;;;5.63;;
19808;SDS011;48538;32.784;-96.802;2024-03-25T00:13:59;7.72;;;5.88;;
19808;SDS011;48538;32.784;-96.802;2024-03-25T00:16:25;10.63;;;5.70;;
19808;SDS011;48538;32.784;-96.802;2024-03-25T00:18:51;7.20;;;5.40;;
19808;SDS011;48538;32.784;-96.802;2024-03-25T00:21:17;8.35;;;5.28;;
19808;SDS011;48538;32.784;-96.802;2024-03-25T00:23:44;12.43;;;5.15;;
19808;SDS011;48538;32.784;-96.802;2024-03-25T00:26:10;8.82;;;4.95;;
19808;SDS011;48538;32.784;-96.802;2024-03-25T00:28:36;6.72;;;4.97;;
19808;SDS011;48538;32.784;-96.802;2024-03-25T00:31:03;10.35;;;5.55;;
19808;SDS011;48538;32.784;-96.802;2024-03-25T00:33:30;7.95;;;5.15;;
19808;SDS011;48538;32.784;-96.802;2024-03-25T00:36:00;7.32;;;5.43;;
19808;SDS011;48538;32.784;-96.802;2024-03-25T00:38:26;8.48;;;5.38;;
19808;SDS011;48538;32.784;-96.802;2024-03-25T00:40:53;6.80;;;5.15;;
19808;SDS011;48538;32.784;-96.802;2024-03-25T00:43:19;9.20;;;5.28;;
19808;SDS011;48538;32.784;-96.802;2024-03-25T00:45:45;5.65;;;5.03;;
19808;SDS011;48538;32.784;-96.802;2024-03-25T00:48:12;6.75;;;5.35;;
19808;SDS011;48538;32.784;-96.802;2024-03-25T00:50:38;8.27;;;5.53;;
19808;SDS011;48538;32.784;-96.802;2024-03-25T00:53:04;5.97;;;4.90;;
19808;SDS011;48538;32.784;-96.802;2024-03-25T00:55:31;7.38;;;5.03;;
19808;SDS011;48538;32.784;-96.802;2024-03-25T00:57:57;6.80;;;5.47;;
19808;SDS011;48538;32.784;-96.802;2024-03-25T01:00:23;7.75;;;5.20;;
19808;SDS011;48538;32.784;-96.802;2024-03-25T01:02:50;8.60;;;5.22;;
19808;SDS011;48538;32.784;-96.802;2024-03-25T01:05:17;9.98;;;5.10;;
19808;SDS011;48538;32.784;-96.802;2024-03-25T01:07:43;9.25;;;4.85;;
19808;SDS011;48538;32.784;-96.802;2024-03-25T01:10:09;9.65;;;5.40;;
19808;SDS011;48538;32.784;-96.802;2024-03-25T01:12:35;11.35;;;5.53;;
19808;SDS011;48538;32.784;-96.802;2024-03-25T01:15:02;7.28;;;4.88;;
19808;SDS011;48538;32.784;-96.802;2024-03-25T01:17:29;6.38;;;4.93;;
19808;SDS011;48538;32.784;-96.802;2024-03-25T01:19:55;8.02;;;5.22;;
19808;SDS011;48538;32.784;-96.802;2024-03-25T01:22:21;6.93;;;4.82;;
19808;SDS011;48538;32.784;-96.802;2024-03-25T01:24:47;10.35;;;4.82;;
19808;SDS011;48538;32.784;-96.802;2024-03-25T01:27:14;8.45;;;4.97;;
19808;SDS011;48538;32.784;-96.802;2024-03-25T01:29:41;6.22;;;5.13;;
19808;SDS011;48538;32.784;-96.802;2024-03-25T01:32:07;9.85;;;5.20;;
19808;SDS011;48538;32.784;-96.802;2024-03-25T01:34:33;6.85;;;4.82;;
19808;SDS011;48538;32.784;-96.802;2024-03-25T01:37:00;8.18;;;4.80;;
19808;SDS011;48538;32.784;-96.802;2024-03-25T01:39:26;9.52;;;5.25;;
19808;SDS011;48538;32.784;-96.802;2024-03-25T01:41:53;9.05;;;4.63;;
19808;SDS011;48538;32.784;-96.802;2024-03-25T01:44:19;7.30;;;5.03;;
19808;SDS011;48538;32.784;-96.802;2024-03-25T01:46:45;7.32;;;4.60;;
19808;SDS011;48538;32.784;-96.802;2024-03-25T01:49:12;6.82;;;4.85;;
19808;SDS011;48538;32.784;-96.802;2024-03-25T01:51:39;7.47;;;4.43;;
19808;SDS011;48538;32.784;-96.802;2024-03-25T01:54:05;7.28;;;4.40;;
19808;SDS011;48538;32.784;-96.802;2024-03-25T01:56:33;5.15;;;4.20;;
19808;SDS011;48538;32.784;-96.802;2024-03-25T01:59:02;6.30;;;4.50;;
19808;SDS011;48538;32.784;-96.802;2024-03-25T02:01:29;6.57;;;5.05;;
19808;SDS011;48538;32.784;-96.802;2024-03-25T02:03:55;8.60;;;4.93;;
19808;SDS011;48538;32.784;-96.802;2024-03-25T02:06:22;4.80;;;4.10;;
19808;SDS011;48538;32.784;-96.802;2024-03-25T02:08:52;7.35;;;4.60;;
19808;SDS011;48538;32.784;-96.802;2024-03-25T02:11:20;10.07;;;5.03;;
19808;SDS011;48538;32.784;-96.802;2024-03-25T02:13:48;9.20;;;4.35;;
19808;SDS011;48538;32.784;-96.802;2024-03-25T02:16:15;11.48;;;4.47;;
19808;SDS011;48538;32.784;-96.802;2024-03-25T02:18:42;5.78;;;4.28;;
19808;SDS011;48538;32.784;-96.802;2024-03-25T02:21:08;7.70;;;4.32;;
19808;SDS011;48538;32.784;-96.802;2024-03-25T02:23:35;9.05;;;3.92;;
19808;SDS011;48538;32.784;-96.802;2024-03-25T02:26:04;7.18;;;3.80;;
19808;SDS011;48538;32.784;-96.802;2024-03-25T02:28:30;6.32;;;3.90;;
19808;SDS011;48538;32.784;-96.802;2024-03-25T02:30:57;7.25;;;4.05;;
19808;SDS011;48538;32.784;-96.802;2024-03-25T02:33:23;8.48;;;4.32;;
19808;SDS011;48538;32.784;-96.802;2024-03-25T02:35:49;5.30;;;4.20;;
19808;SDS011;48538;32.784;-96.802;2024-03-25T02:38:15;11.07;;;4.13;;
19808;SDS011;48538;32.784;-96.802;2024-03-25T02:40:43;5.82;;;4.10;;
19808;SDS011;48538;32.784;-96.802;2024-03-25T02:43:10;7.80;;;4.03;;
19808;SDS011;48538;32.784;-96.802;2024-03-25T02:45:37;7.47;;;4.07;;
19808;SDS011;48538;32.784;-96.802;2024-03-25T02:48:03;6.35;;;4.05;;
19808;SDS011;48538;32.784;-96.802;2024-03-25T02:50:30;8.57;;;4.18;;
19808;SDS011;48538;32.784;-96.802;2024-03-25T02:52:56;11.40;;;4.63;;
19808;SDS011;48538;32.784;-96.802;2024-03-25T02:55:23;9.52;;;4.43;;
19808;SDS011;48538;32.784;-96.802;2024-03-25T02:57:49;9.75;;;3.55;;
19808;SDS011;48538;32.784;-96.802;2024-03-25T03:00:15;9.10;;;3.70;;
19808;SDS011;48538;32.784;-96.802;2024-03-25T03:02:42;5.60;;;3.72;;
19808;SDS011;48538;32.784;-96.802;2024-03-25T03:05:09;5.30;;;3.58;;
19808;SDS011;48538;32.784;-96.802;2024-03-25T03:07:35;6.78;;;3.78;;
19808;SDS011;48538;32.784;-96.802;2024-03-25T03:10:01;5.05;;;3.92;;
19808;SDS011;48538;32.784;-96.802;2024-03-25T03:12:27;5.57;;;3.88;;
19808;SDS011;48538;32.784;-96.802;2024-03-25T03:14:54;6.50;;;4.25;;
19808;SDS011;48538;32.784;-96.802;2024-03-25T03:17:20;8.50;;;4.05;;
19808;SDS011;48538;32.784;-96.802;2024-03-25T03:19:46;11.15;;;4.18;;
19808;SDS011;48538;32.784;-96.802;2024-03-25T03:22:12;7.72;;;3.60;;
19808;SDS011;48538;32.784;-96.802;2024-03-25T03:24:39;10.63;;;3.85;;
19808;SDS011;48538;32.784;-96.802;2024-03-25T03:27:05;6.93;;;3.55;;
19808;SDS011;48538;32.784;-96.802;2024-03-25T03:29:32;8.23;;;3.78;;
19808;SDS011;48538;32.784;-96.802;2024-03-25T03:31:58;10.00;;;3.25;;
19808;SDS011;48538;32.784;-96.802;2024-03-25T03:34:25;5.22;;;3.40;;
19808;SDS011;48538;32.784;-96.802;2024-03-25T03:36:51;5.88;;;3.63;;
19808;SDS011;48538;32.784;-96.802;2024-03-25T03:39:17;5.85;;;3.53;;
19808;SDS011;48538;32.784;-96.802;2024-03-25T03:41:44;8.70;;;4.07;;
19808;SDS011;48538;32.784;-96.802;2024-03-25T03:44:10;7.32;;;3.78;;
19808;SDS011;48538;32.784;-96.802;2024-03-25T03:46:38;7.38;;;3.92;;
19808;SDS011;48538;32.784;-96.802;2024-03-25T03:49:04;8.35;;;3.58;;
19808;SDS011;48538;32.784;-96.802;2024-03-25T03:51:30;5.90;;;3.88;;
19808;SDS011;48538;32.784;-96.802;2024-03-25T03:53:57;7.93;;;3.78;;
19808;SDS011;48538;32.784;-96.802;2024-03-25T03:56:23;7.35;;;3.40;;
19808;SDS011;48538;32.784;-96.802;2024-03-25T03:58:49;5.85;;;4.05;;
19808;SDS011;48538;32.784;-96.802;2024-03-25T04:01:16;6.95;;;3.35;;
19808;SDS011;48538;32.784;-96.802;2024-03-25T04:03:43;5.18;;;3.20;;
19808;SDS011;48538;32.784;-96.802;2024-03-25T04:06:10;7.97;;;3.53;;
19808;SDS011;48538;32.784;-96.802;2024-03-25T04:08:40;9.23;;;3.80;;
19808;SDS011;48538;32.784;-96.802;2024-03-25T04:11:07;6.82;;;4.00;;
19808;SDS011;48538;32.784;-96.802;2024-03-25T04:13:34;5.00;;;3.55;;
19808;SDS011;48538;32.784;-96.802;2024-03-25T04:16:02;7.05;;;3.53;;
19808;SDS011;48538;32.784;-96.802;2024-03-25T04:18:29;7.75;;;4.18;;
19808;SDS011;48538;32.784;-96.802;2024-03-25T04:20:56;13.00;;;4.63;;
19808;SDS011;48538;32.784;-96.802;2024-03-25T04:23:23;5.15;;;3.95;;
19808;SDS011;48538;32.784;-96.802;2024-03-25T04:25:49;12.30;;;4.45;;
19808;SDS011;48538;32.784;-96.802;2024-03-25T04:28:16;7.80;;;4.07;;
19808;SDS011;48538;32.784;-96.802;2024-03-25T04:30:42;6.72;;;4.13;;
19808;SDS011;48538;32.784;-96.802;2024-03-25T04:33:09;7.57;;;3.83;;
19808;SDS011;48538;32.784;-96.802;2024-03-25T04:35:35;10.40;;;4.00;;
19808;SDS011;48538;32.784;-96.802;2024-03-25T04:38:01;7.18;;;3.92;;
19808;SDS011;48538;32.784;-96.802;2024-03-25T04:40:28;6.65;;;3.83;;
19808;SDS011;48538;32.784;-96.802;2024-03-25T04:42:55;5.53;;;3.60;;
19808;SDS011;48538;32.784;-96.802;2024-03-25T04:45:22;11.18;;;3.70;;
19808;SDS011;48538;32.784;-96.802;2024-03-25T04:47:48;6.43;;;3.80;;
19808;SDS011;48538;32.784;-96.802;2024-03-25T04:50:14;6.47;;;3.58;;
19808;SDS011;48538;32.784;-96.802;2024-03-25T04:52:41;5.90;;;4.07;;
19808;SDS011;48538;32.784;-96.802;2024-03-25T04:55:07;7.10;;;3.95;;
19808;SDS011;48538;32.784;-96.802;2024-03-25T04:57:33;7.43;;;3.83;;
19808;SDS011;48538;32.784;-96.802;2024-03-25T05:00:00;7.57;;;3.83;;
19808;SDS011;48538;32.784;-96.802;2024-03-25T05:02:26;5.80;;;3.97;;
19808;SDS011;48538;32.784;-96.802;2024-03-25T05:04:52;8.13;;;3.95;;
19808;SDS011;48538;32.784;-96.802;2024-03-25T05:07:18;7.50;;;3.58;;
19808;SDS011;48538;32.784;-96.802;2024-03-25T05:09:44;8.68;;;4.35;;
19808;SDS011;48538;32.784;-96.802;2024-03-25T05:12:11;6.55;;;3.28;;
19808;SDS011;48538;32.784;-96.802;2024-03-25T05:14:37;9.65;;;3.95;;
19808;SDS011;48538;32.784;-96.802;2024-03-25T05:17:03;5.47;;;3.90;;
19808;SDS011;48538;32.784;-96.802;2024-03-25T05:19:31;8.57;;;3.50;;
19808;SDS011;48538;32.784;-96.802;2024-03-25T05:21:57;9.32;;;3.75;;
19808;SDS011;48538;32.784;-96.802;2024-03-25T05:24:23;6.40;;;4.07;;
19808;SDS011;48538;32.784;-96.802;2024-03-25T05:26:49;12.43;;;4.78;;
19808;SDS011;48538;32.784;-96.802;2024-03-25T05:29:16;9.77;;;4.10;;
19808;SDS011;48538;32.784;-96.802;2024-03-25T05:31:55;7.00;;;4.43;;
19808;SDS011;48538;32.784;-96.802;2024-03-25T05:34:28;10.48;;;4.40;;
19808;SDS011;48538;32.784;-96.802;2024-03-25T05:36:54;11.38;;;4.72;;
19808;SDS011;48538;32.784;-96.802;2024-03-25T05:39:21;5.78;;;3.72;;
19808;SDS011;48538;32.784;-96.802;2024-03-25T05:41:47;5.22;;;3.80;;
19808;SDS011;48538;32.784;-96.802;2024-03-25T05:44:13;6.63;;;3.95;;
19808;SDS011;48538;32.784;-96.802;2024-03-25T05:46:40;9.43;;;4.28;;
19808;SDS011;48538;32.784;-96.802;2024-03-25T05:49:06;6.60;;;3.25;;
19808;SDS011;48538;32.784;-96.802;2024-03-25T05:51:33;7.00;;;4.43;;
19808;SDS011;48538;32.784;-96.802;2024-03-25T05:53:59;8.95;;;4.15;;
19808;SDS011;48538;32.784;-96.802;2024-03-25T05:56:26;10.40;;;4.22;;
19808;SDS011;48538;32.784;-96.802;2024-03-25T05:59:01;6.15;;;3.38;;
19808;SDS011;48538;32.784;-96.802;2024-03-25T06:01:27;8.48;;;3.70;;
19808;SDS011;48538;32.784;-96.802;2024-03-25T06:03:53;9.57;;;3.75;;
19808;SDS011;48538;32.784;-96.802;2024-03-25T06:06:20;7.05;;;3.72;;
19808;SDS011;48538;32.784;-96.802;2024-03-25T06:08:47;7.50;;;3.92;;
19808;SDS011;48538;32.784;-96.802;2024-03-25T06:11:15;10.85;;;4.03;;
19808;SDS011;48538;32.784;-96.802;2024-03-25T06:13:45;10.95;;;3.58;;
19808;SDS011;48538;32.784;-96.802;2024-03-25T06:16:12;6.93;;;3.20;;
19808;SDS011;48538;32.784;-96.802;2024-03-25T06:18:39;8.70;;;3.92;;
19808;SDS011;48538;32.784;-96.802;2024-03-25T06:21:05;9.05;;;3.75;;
19808;SDS011;48538;32.784;-96.802;2024-03-25T06:23:32;11.13;;;3.70;;
19808;SDS011;48538;32.784;-96.802;2024-03-25T06:25:58;11.45;;;3.47;;
19808;SDS011;48538;32.784;-96.802;2024-03-25T06:28:25;8.23;;;3.63;;
19808;SDS011;48538;32.784;-96.802;2024-03-25T06:30:51;8.20;;;3.70;;
19808;SDS011;48538;32.784;-96.802;2024-03-25T06:33:36;11.40;;;3.50;;
19808;SDS011;48538;32.784;-96.802;2024-03-25T06:36:21;8.68;;;3.72;;
19808;SDS011;48538;32.784;-96.802;2024-03-25T06:38:48;8.57;;;3.38;;
19808;SDS011;48538;32.784;-96.802;2024-03-25T06:41:14;8.05;;;3.65;;
19808;SDS011;48538;32.784;-96.802;2024-03-25T06:43:40;7.82;;;3.75;;
19808;SDS011;48538;32.784;-96.802;2024-03-25T06:46:07;11.57;;;4.20;;
19808;SDS011;48538;32.784;-96.802;2024-03-25T06:48:33;10.13;;;3.75;;
19808;SDS011;48538;32.784;-96.802;2024-03-25T06:51:00;11.90;;;4.45;;
19808;SDS011;48538;32.784;-96.802;2024-03-25T06:53:29;8.25;;;3.28;;
19808;SDS011;48538;32.784;-96.802;2024-03-25T06:55:56;7.93;;;3.40;;
19808;SDS011;48538;32.784;-96.802;2024-03-25T06:58:24;7.03;;;3.53;;
19808;SDS011;48538;32.784;-96.802;2024-03-25T07:00:52;10.27;;;4.05;;
19808;SDS011;48538;32.784;-96.802;2024-03-25T07:03:19;6.07;;;2.97;;
19808;SDS011;48538;32.784;-96.802;2024-03-25T07:05:46;7.05;;;2.65;;
19808;SDS011;48538;32.784;-96.802;2024-03-25T07:08:14;7.25;;;2.60;;
19808;SDS011;48538;32.784;-96.802;2024-03-25T07:10:43;12.35;;;3.08;;
19808;SDS011;48538;32.784;-96.802;2024-03-25T07:13:10;6.60;;;2.67;;
19808;SDS011;48538;32.784;-96.802;2024-03-25T07:15:38;5.57;;;2.25;;
19808;SDS011;48538;32.784;-96.802;2024-03-25T07:18:05;3.88;;;2.45;;
19808;SDS011;48538;32.784;-96.802;2024-03-25T07:20:31;5.05;;;2.00;;
19808;SDS011;48538;32.784;-96.802;2024-03-25T07:22:58;2.60;;;2.00;;
19808;SDS011;48538;32.784;-96.802;2024-03-25T07:25:24;3.20;;;1.90;;
19808;SDS011;48538;32.784;-96.802;2024-03-25T07:27:51;3.80;;;2.10;;
19808;SDS011;48538;32.784;-96.802;2024-03-25T07:30:20;2.75;;;1.65;;
19808;SDS011;48538;32.784;-96.802;2024-03-25T07:32:53;4.63;;;2.10;;
19808;SDS011;48538;32.784;-96.802;2024-03-25T07:35:28;4.53;;;2.20;;
19808;SDS011;48538;32.784;-96.802;2024-03-25T07:37:55;5.63;;;2.10;;
19808;SDS011;48538;32.784;-96.802;2024-03-25T07:40:21;4.03;;;1.95;;
19808;SDS011;48538;32.784;-96.802;2024-03-25T07:42:48;6.88;;;3.13;;
19808;SDS011;48538;32.784;-96.802;2024-03-25T07:45:14;5.80;;;2.28;;
19808;SDS011;48538;32.784;-96.802;2024-03-25T07:47:41;7.40;;;2.75;;
19808;SDS011;48538;32.784;-96.802;2024-03-25T07:50:07;9.05;;;2.78;;
19808;SDS011;48538;32.784;-96.802;2024-03-25T07:52:34;7.45;;;2.50;;
19808;SDS011;48538;32.784;-96.802;2024-03-25T07:55:08;5.30;;;2.70;;
19808;SDS011;48538;32.784;-96.802;2024-03-25T07:57:35;9.40;;;2.63;;
19808;SDS011;48538;32.784;-96.802;2024-03-25T08:00:02;7.05;;;2.70;;
19808;SDS011;48538;32.784;-96.802;2024-03-25T08:02:31;5.90;;;2.90;;
19808;SDS011;48538;32.784;-96.802;2024-03-25T08:04:57;5.57;;;2.85;;
19808;SDS011;48538;32.784;-96.802;2024-03-25T08:07:23;6.18;;;2.60;;
19808;SDS011;48538;32.784;-96.802;2024-03-25T08:09:49;4.32;;;2.67;;
19808;SDS011;48538;32.784;-96.802;2024-03-25T08:12:16;6.43;;;2.97;;
19808;SDS011;48538;32.784;-96.802;2024-03-25T08:14:42;5.78;;;2.92;;
19808;SDS011;48538;32.784;-96.802;2024-03-25T08:17:08;5.82;;;2.42;;
19808;SDS011;48538;32.784;-96.802;2024-03-25T08:19:35;6.53;;;2.88;;
19808;SDS011;48538;32.784;-96.802;2024-03-25T08:22:01;7.90;;;3.35;;
19808;SDS011;48538;32.784;-96.802;2024-03-25T08:24:28;6.88;;;2.45;;
19808;SDS011;48538;32.784;-96.802;2024-03-25T08:26:54;8.40;;;3.00;;
19808;SDS011;48538;32.784;-96.802;2024-03-25T08:29:20;10.27;;;2.95;;
19808;SDS011;48538;32.784;-96.802;2024-03-25T08:31:47;6.88;;;3.10;;
19808;SDS011;48538;32.784;-96.802;2024-03-25T08:34:13;7.88;;;2.97;;
19808;SDS011;48538;32.784;-96.802;2024-03-25T08:36:39;5.65;;;2.63;;
19808;SDS011;48538;32.784;-96.802;2024-03-25T08:39:05;11.07;;;3.25;;
19808;SDS011;48538;32.784;-96.802;2024-03-25T08:41:32;7.97;;;2.85;;
19808;SDS011;48538;32.784;-96.802;2024-03-25T08:43:58;6.05;;;3.20;;
19808;SDS011;48538;32.784;-96.802;2024-03-25T08:46:24;11.05;;;3.35;;
19808;SDS011;48538;32.784;-96.802;2024-03-25T08:48:50;7.47;;;3.10;;
19808;SDS011;48538;32.784;-96.802;2024-03-25T08:51:17;8.07;;;3.70;;
19808;SDS011;48538;32.784;-96.802;2024-03-25T08:53:43;7.95;;;3.90;;
19808;SDS011;48538;32.784;-96.802;2024-03-25T08:56:09;5.78;;;2.83;;
19808;SDS011;48538;32.784;-96.802;2024-03-25T08:58:35;4.35;;;3.25;;
19808;SDS011;48538;32.784;-96.802;2024-03-25T09:01:02;7.03;;;2.92;;
19808;SDS011;48538;32.784;-96.802;2024-03-25T09:03:28;4.60;;;2.92;;
19808;SDS011;48538;32.784;-96.802;2024-03-25T09:05:55;8.27;;;3.10;;
19808;SDS011;48538;32.784;-96.802;2024-03-25T09:08:21;5.47;;;2.60;;
19808;SDS011;48538;32.784;-96.802;2024-03-25T09:10:47;11.13;;;3.08;;
19808;SDS011;48538;32.784;-96.802;2024-03-25T09:13:42;6.82;;;2.70;;
19808;SDS011;48538;32.784;-96.802;2024-03-25T09:16:09;4.72;;;2.83;;
19808;SDS011;48538;32.784;-96.802;2024-03-25T09:18:35;6.95;;;3.22;;
19808;SDS011;48538;32.784;-96.802;2024-03-25T09:21:01;5.45;;;2.80;;
19808;SDS011;48538;32.784;-96.802;2024-03-25T09:23:27;7.47;;;2.85;;
19808;SDS011;48538;32.784;-96.802;2024-03-25T09:25:54;9.65;;;3.35;;
19808;SDS011;48538;32.784;-96.802;2024-03-25T09:28:20;6.70;;;3.42;;
19808;SDS011;48538;32.784;-96.802;2024-03-25T09:30:47;11.80;;;4.28;;
19808;SDS011;48538;32.784;-96.802;2024-03-25T09:33:15;10.18;;;4.47;;
19808;SDS011;48538;32.784;-96.802;2024-03-25T09:35:41;11.63;;;4.40;;
19808;SDS011;48538;32.784;-96.802;2024-03-25T09:38:07;10.50;;;4.30;;
19808;SDS011;48538;32.784;-96.802;2024-03-25T09:40:39;6.35;;;3.65;;
19808;SDS011;48538;32.784;-96.802;2024-03-25T09:43:06;14.30;;;4.05;;
19808;SDS011;48538;32.784;-96.802;2024-03-25T09:45:38;10.82;;;4.47;;
19808;SDS011;48538;32.784;-96.802;2024-03-25T09:48:05;11.27;;;4.20;;
19808;SDS011;48538;32.784;-96.802;2024-03-25T09:50:33;10.00;;;3.53;;
19808;SDS011;48538;32.784;-96.802;2024-03-25T09:53:00;7.07;;;3.60;;
19808;SDS011;48538;32.784;-96.802;2024-03-25T09:55:26;13.55;;;4.47;;
19808;SDS011;48538;32.784;-96.802;2024-03-25T09:57:52;15.82;;;4.53;;
19808;SDS011;48538;32.784;-96.802;2024-03-25T10:00:20;13.20;;;4.57;;
19808;SDS011;48538;32.784;-96.802;2024-03-25T10:02:47;13.02;;;4.50;;
19808;SDS011;48538;32.784;-96.802;2024-03-25T10:05:13;12.93;;;5.13;;
19808;SDS011;48538;32.784;-96.802;2024-03-25T10:07:39;12.73;;;5.47;;
19808;SDS011;48538;32.784;-96.802;2024-03-25T10:10:06;11.25;;;5.32;;
19808;SDS011;48538;32.784;-96.802;2024-03-25T10:12:35;21.42;;;5.50;;
19808;SDS011;48538;32.784;-96.802;2024-03-25T10:15:02;11.60;;;5.15;;
19808;SDS011;48538;32.784;-96.802;2024-03-25T10:17:32;15.55;;;4.90;;
19808;SDS011;48538;32.784;-96.802;2024-03-25T10:19:59;15.63;;;4.90;;
19808;SDS011;48538;32.784;-96.802;2024-03-25T10:22:25;12.75;;;4.97;;
19808;SDS011;48538;32.784;-96.802;2024-03-25T10:24:51;15.98;;;4.05;;
19808;SDS011;48538;32.784;-96.802;2024-03-25T10:29:56;6.82;;;4.03;;
19808;SDS011;48538;32.784;-96.802;2024-03-25T10:32:23;17.48;;;4.85;;
19808;SDS011;48538;32.784;-96.802;2024-03-25T10:34:54;19.17;;;4.45;;
19808;SDS011;48538;32.784;-96.802;2024-03-25T10:37:20;17.77;;;4.10;;
19808;SDS011;48538;32.784;-96.802;2024-03-25T10:39:49;18.95;;;5.28;;
19808;SDS011;48538;32.784;-96.802;2024-03-25T10:42:20;16.92;;;4.57;;
19808;SDS011;48538;32.784;-96.802;2024-03-25T10:44:48;14.35;;;4.50;;
19808;SDS011;48538;32.784;-96.802;2024-03-25T10:47:21;13.73;;;4.80;;
19808;SDS011;48538;32.784;-96.802;2024-03-25T10:49:51;16.38;;;4.85;;
19808;SDS011;48538;32.784;-96.802;2024-03-25T10:52:26;19.58;;;5.20;;
19808;SDS011;48538;32.784;-96.802;2024-03-25T10:54:54;10.70;;;4.30;;
19808;SDS011;48538;32.784;-96.802;2024-03-25T10:57:21;14.00;;;5.30;;
19808;SDS011;48538;32.784;-96.802;2024-03-25T10:59:48;16.20;;;4.95;;
19808;SDS011;48538;32.784;-96.802;2024-03-25T11:02:15;16.63;;;4.88;;
19808;SDS011;48538;32.784;-96.802;2024-03-25T11:04:43;14.03;;;4.80;;
19808;SDS011;48538;32.784;-96.802;2024-03-25T11:07:14;13.15;;;4.70;;
19808;SDS011;48538;32.784;-96.802;2024-03-25T11:09:41;14.20;;;5.15;;
19808;SDS011;48538;32.784;-96.802;2024-03-25T11:12:11;16.40;;;5.20;;
19808;SDS011;48538;32.784;-96.802;2024-03-25T11:14:38;19.60;;;4.90;;
19808;SDS011;48538;32.784;-96.802;2024-03-25T11:17:16;12.35;;;5.05;;
19808;SDS011;48538;32.784;-96.802;2024-03-25T11:19:42;14.32;;;4.78;;
19808;SDS011;48538;32.784;-96.802;2024-03-25T11:22:09;10.82;;;5.15;;
19808;SDS011;48538;32.784;-96.802;2024-03-25T11:24:36;17.08;;;5.55;;
19808;SDS011;48538;32.784;-96.802;2024-03-25T11:27:06;15.07;;;5.05;;
19808;SDS011;48538;32.784;-96.802;2024-03-25T11:29:33;18.02;;;5.38;;
19808;SDS011;48538;32.784;-96.802;2024-03-25T11:32:03;18.85;;;4.85;;
19808;SDS011;48538;32.784;-96.802;2024-03-25T11:34:30;20.38;;;4.97;;
19808;SDS011;48538;32.784;-96.802;2024-03-25T11:36:57;18.77;;;5.03;;
19808;SDS011;48538;32.784;-96.802;2024-03-25T11:39:24;26.38;;;4.85;;
19808;SDS011;48538;32.784;-96.802;2024-03-25T11:41:52;20.67;;;4.95;;
19808;SDS011;48538;32.784;-96.802;2024-03-25T11:44:18;16.40;;;5.35;;
19808;SDS011;48538;32.784;-96.802;2024-03-25T11:46:44;25.70;;;4.95;;
19808;SDS011;48538;32.784;-96.802;2024-03-25T11:49:17;23.95;;;5.38;;
19808;SDS011;48538;32.784;-96.802;2024-03-25T11:51:43;12.70;;;4.30;;
19808;SDS011;48538;32.784;-96.802;2024-03-25T11:54:11;19.90;;;5.43;;
19808;SDS011;48538;32.784;-96.802;2024-03-25T11:56:38;22.70;;;5.45;;
19808;SDS011;48538;32.784;-96.802;2024-03-25T11:59:05;20.02;;;5.05;;
19808;SDS011;48538;32.784;-96.802;2024-03-25T12:01:32;19.00;;;5.28;;
19808;SDS011;48538;32.784;-96.802;2024-03-25T12:04:19;19.90;;;6.40;;
19808;SDS011;48538;32.784;-96.802;2024-03-25T12:06:45;22.15;;;5.90;;
19808;SDS011;48538;32.784;-96.802;2024-03-25T12:09:11;25.35;;;7.10;;
19808;SDS011;48538;32.784;-96.802;2024-03-25T12:11:56;21.63;;;6.13;;
19808;SDS011;48538;32.784;-96.802;2024-03-25T12:14:23;21.02;;;6.43;;
19808;SDS011;48538;32.784;-96.802;2024-03-25T12:16:53;17.50;;;6.13;;
19808;SDS011;48538;32.784;-96.802;2024-03-25T12:19:19;20.40;;;5.60;;
19808;SDS011;48538;32.784;-96.802;2024-03-25T12:21:46;15.40;;;5.85;;
19808;SDS011;48538;32.784;-96.802;2024-03-25T12:24:13;18.35;;;5.53;;
19808;SDS011;48538;32.784;-96.802;2024-03-25T12:26:39;15.50;;;5.20;;
19808;SDS011;48538;32.784;-96.802;2024-03-25T12:29:06;16.88;;;5.75;;
19808;SDS011;48538;32.784;-96.802;2024-03-25T12:31:32;18.05;;;5.97;;
19808;SDS011;48538;32.784;-96.802;2024-03-25T12:33:59;15.30;;;5.23;;
19808;SDS011;48538;32.784;-96.802;2024-03-25T12:36:25;12.73;;;5.90;;
19808;SDS011;48538;32.784;-96.802;2024-03-25T12:38:54;20.77;;;6.13;;
19808;SDS011;48538;32.784;-96.802;2024-03-25T12:41:22;16.33;;;5.55;;
19808;SDS011;48538;32.784;-96.802;2024-03-25T12:43:49;20.75;;;5.25;;
19808;SDS011;48538;32.784;-96.802;2024-03-25T12:46:17;16.75;;;4.80;;
19808;SDS011;48538;32.784;-96.802;2024-03-25T12:48:43;18.70;;;4.78;;
19808;SDS011;48538;32.784;-96.802;2024-03-25T12:51:13;23.95;;;4.88;;
19808;SDS011;48538;32.784;-96.802;2024-03-25T12:53:40;22.02;;;4.80;;
19808;SDS011;48538;32.784;-96.802;2024-03-25T12:56:07;20.35;;;4.80;;
19808;SDS011;48538;32.784;-96.802;2024-03-25T12:58:34;9.00;;;4.10;;
19808;SDS011;48538;32.784;-96.802;2024-03-25T13:01:00;17.27;;;3.92;;
19808;SDS011;48538;32.784;-96.802;2024-03-25T13:03:26;20.45;;;4.22;;
19808;SDS011;48538;32.784;-96.802;2024-03-25T13:05:53;20.92;;;4.90;;
19808;SDS011;48538;32.784;-96.802;2024-03-25T13:08:23;24.05;;;4.78;;
19808;SDS011;48538;32.784;-96.802;2024-03-25T13:10:49;23.23;;;4.65;;
19808;SDS011;48538;32.784;-96.802;2024-03-25T13:13:16;20.33;;;4.78;;
19808;SDS011;48538;32.784;-96.802;2024-03-25T13:15:44;35.35;;;5.20;;
19808;SDS011;48538;32.784;-96.802;2024-03-25T13:18:10;23.35;;;5.00;;
19808;SDS011;48538;32.784;-96.802;2024-03-25T13:20:36;30.70;;;5.28;;
19808;SDS011;48538;32.784;-96.802;2024-03-25T13:23:02;26.77;;;4.43;;
19808;SDS011;48538;32.784;-96.802;2024-03-25T13:25:29;22.15;;;4.78;;
19808;SDS011;48538;32.784;-96.802;2024-03-25T13:27:55;32.58;;;5.50;;
19808;SDS011;48538;32.784;-96.802;2024-03-25T13:30:21;24.65;;;5.00;;
19808;SDS011;48538;32.784;-96.802;2024-03-25T13:32:52;22.85;;;5.32;;
19808;SDS011;48538;32.784;-96.802;2024-03-25T13:35:18;25.05;;;5.43;;
19808;SDS011;48538;32.784;-96.802;2024-03-25T13:37:44;24.70;;;5.72;;
19808;SDS011;48538;32.784;-96.802;2024-03-25T13:40:11;32.13;;;5.95;;
19808;SDS011;48538;32.784;-96.802;2024-03-25T13:42:37;29.27;;;5.20;;
19808;SDS011;48538;32.784;-96.802;2024-03-25T13:45:04;27.70;;;5.22;;
19808;SDS011;48538;32.784;-96.802;2024-03-25T13:47:30;29.73;;;6.07;;
19808;SDS011;48538;32.784;-96.802;2024-03-25T13:50:03;21.52;;;4.72;;
19808;SDS011;48538;32.784;-96.802;2024-03-25T13:52:30;32.97;;;4.90;;
19808;SDS011;48538;32.784;-96.802;2024-03-25T13:54:56;21.20;;;5.78;;
19808;SDS011;48538;32.784;-96.802;2024-03-25T13:57:23;26.20;;;4.68;;
19808;SDS011;48538;32.784;-96.802;2024-03-25T13:59:52;29.87;;;5.53;;
19808;SDS011;48538;32.784;-96.802;2024-03-25T14:02:18;25.55;;;4.20;;
19808;SDS011;48538;32.784;-96.802;2024-03-25T14:04:44;28.15;;;6.35;;
19808;SDS011;48538;32.784;-96.802;2024-03-25T14:07:11;30.70;;;5.55;;
19808;SDS011;48538;32.784;-96.802;2024-03-25T14:09:37;30.90;;;5.60;;
19808;SDS011;48538;32.784;-96.802;2024-03-25T14:12:03;26.27;;;5.25;;
19808;SDS011;48538;32.784;-96.802;2024-03-25T14:14:29;23.25;;;5.38;;
19808;SDS011;48538;32.784;-96.802;2024-03-25T14:16:56;23.08;;;5.47;;
19808;SDS011;48538;32.784;-96.802;2024-03-25T14:19:22;26.70;;;5.10;;